createdAt,value
2022-10-01T00:01:02.015Z,16.88
2022-10-01T00:03:29.455Z,16.88
2022-10-01T00:06:22.406Z,17.10
2022-10-01T00:08:50.180Z,17.11
2022-10-01T00:11:23.586Z,17.04
2022-10-01T00:13:50.967Z,16.95
2022-10-01T00:16:20.213Z,16.84
2022-10-01T00:18:48.138Z,16.84
2022-10-01T00:21:20.384Z,16.88
2022-10-01T00:23:47.447Z,17.12
2022-10-01T00:26:20.973Z,17.10
2022-10-01T00:28:52.509Z,17.06
2022-10-01T00:31:19.040Z,16.89
2022-10-01T00:33:45.685Z,16.98
2022-10-01T00:36:12.272Z,16.79
2022-10-01T00:38:42.884Z,16.78
2022-10-01T00:41:10.425Z,16.73
2022-10-01T00:43:42.399Z,16.87
2022-10-01T00:46:22.407Z,16.66
2022-10-01T00:49:13.629Z,16.73
2022-10-01T00:51:44.659Z,16.70
2022-10-01T00:54:21.233Z,16.70
2022-10-01T00:56:49.883Z,16.60
2022-10-01T00:59:16.440Z,16.64
2022-10-01T01:01:42.989Z,16.79
2022-10-01T01:04:16.476Z,16.56
2022-10-01T01:06:57.675Z,16.40
2022-10-01T01:09:30.525Z,16.48
2022-10-01T01:12:08.875Z,16.64
2022-10-01T01:14:44.250Z,16.79
2022-10-01T01:17:20.941Z,16.62
2022-10-01T01:20:12.264Z,16.97
2022-10-01T01:22:48.386Z,16.85
2022-10-01T01:25:29.080Z,16.83
2022-10-01T01:28:12.195Z,16.64
2022-10-01T01:30:41.316Z,16.86
2022-10-01T01:33:15.006Z,16.69
2022-10-01T01:36:07.111Z,16.86
2022-10-01T01:38:40.296Z,16.78
2022-10-01T01:41:09.114Z,17.04
2022-10-01T01:43:40.659Z,17.10
2022-10-01T01:46:10.247Z,17.10
2022-10-01T01:48:39.982Z,16.89
2022-10-01T01:51:20.653Z,16.88
2022-10-01T01:53:47.130Z,16.74
2022-10-01T01:56:14.162Z,17.23
2022-10-01T01:58:40.722Z,16.82
2022-10-01T02:01:07.433Z,16.80
2022-10-01T02:03:35.292Z,16.78
2022-10-01T02:06:48.064Z,16.93
2022-10-01T02:09:36.104Z,17.22
2022-10-01T02:12:17.651Z,16.92
2022-10-01T02:14:51.897Z,16.79
2022-10-01T02:17:28.098Z,16.96
2022-10-01T02:20:00.583Z,16.80
2022-10-01T02:22:33.390Z,16.74
2022-10-01T02:25:03.320Z,16.84
2022-10-01T02:28:01.025Z,16.92
2022-10-01T02:30:30.048Z,16.85
2022-10-01T02:33:00.284Z,16.87
2022-10-01T02:35:30.841Z,16.97
2022-10-01T02:38:01.950Z,16.86
2022-10-01T02:40:32.439Z,16.59
2022-10-01T02:43:07.344Z,16.48
2022-10-01T02:45:37.720Z,16.37
2022-10-01T02:48:07.677Z,16.33
2022-10-01T02:50:52.828Z,16.41
2022-10-01T02:53:44.244Z,16.68
2022-10-01T02:56:14.708Z,16.56
2022-10-01T02:58:41.965Z,16.49
2022-10-01T03:01:08.472Z,16.82
2022-10-01T03:03:35.047Z,16.76
2022-10-01T03:06:01.460Z,16.78
2022-10-01T03:08:27.937Z,16.88
2022-10-01T03:10:54.361Z,16.95
2022-10-01T03:13:23.425Z,16.99
2022-10-01T03:15:50.006Z,16.97
2022-10-01T03:18:16.509Z,17.00
2022-10-01T03:20:42.949Z,16.89
2022-10-01T03:23:09.371Z,16.60
2022-10-01T03:25:36.398Z,16.50
2022-10-01T03:28:02.880Z,16.61
2022-10-01T03:30:30.327Z,16.53
2022-10-01T03:32:56.779Z,16.94
2022-10-01T03:35:24.948Z,16.56
2022-10-01T03:37:51.466Z,16.84
2022-10-01T03:40:17.951Z,16.60
2022-10-01T03:42:44.384Z,16.52
2022-10-01T03:45:10.953Z,16.52
2022-10-01T03:47:37.686Z,16.38
2022-10-01T03:50:04.564Z,16.40
2022-10-01T03:52:31.026Z,16.37
2022-10-01T03:54:57.479Z,16.38
2022-10-01T03:57:24.009Z,16.33
2022-10-01T03:59:50.528Z,16.38
2022-10-01T04:02:17.108Z,16.59
2022-10-01T04:04:43.704Z,16.41
2022-10-01T04:07:10.116Z,16.43
2022-10-01T04:09:37.582Z,16.38
2022-10-01T04:12:04.217Z,16.60
2022-10-01T04:14:30.681Z,16.52
2022-10-01T04:16:57.128Z,16.30
2022-10-01T04:19:23.571Z,16.37
2022-10-01T04:21:50.005Z,16.58
2022-10-01T04:24:16.448Z,16.53
2022-10-01T04:26:42.896Z,16.32
2022-10-01T04:29:09.694Z,16.29
2022-10-01T04:31:37.066Z,16.27
2022-10-01T04:34:04.290Z,16.11
2022-10-01T04:36:31.074Z,16.00
2022-10-01T04:39:01.811Z,15.84
2022-10-01T04:41:30.842Z,15.80
2022-10-01T04:43:59.311Z,15.81
2022-10-01T04:46:25.988Z,15.94
2022-10-01T04:48:52.448Z,15.97
2022-10-01T04:51:18.951Z,16.02
2022-10-01T04:53:45.417Z,15.73
2022-10-01T04:56:11.907Z,15.59
2022-10-01T04:58:38.570Z,15.50
2022-10-01T05:01:05.189Z,15.65
2022-10-01T05:03:31.690Z,15.62
2022-10-01T05:05:58.318Z,15.48
2022-10-01T05:08:24.766Z,15.49
2022-10-01T05:10:51.295Z,15.44
2022-10-01T05:13:17.724Z,15.41
2022-10-01T05:15:44.882Z,15.45
2022-10-01T05:18:11.421Z,15.52
2022-10-01T05:20:38.373Z,15.35
2022-10-01T05:23:05.002Z,15.40
2022-10-01T05:25:31.611Z,15.44
2022-10-01T05:28:05.737Z,15.27
2022-10-01T05:30:33.779Z,15.39
2022-10-01T05:33:01.937Z,15.32
2022-10-01T05:35:28.480Z,15.29
2022-10-01T05:38:00.048Z,15.36
2022-10-01T05:40:28.752Z,15.29
2022-10-01T05:42:56.885Z,15.24
2022-10-01T05:45:23.903Z,15.46
2022-10-01T05:48:16.421Z,15.47
2022-10-01T05:50:44.089Z,15.50
2022-10-01T05:53:11.861Z,15.43
2022-10-01T05:55:38.654Z,15.58
2022-10-01T05:58:07.694Z,15.52
2022-10-01T06:00:34.905Z,15.56
2022-10-01T06:03:02.632Z,15.45
2022-10-01T06:05:30.872Z,15.47
2022-10-01T06:07:58.200Z,15.42
2022-10-01T06:10:25.724Z,15.53
2022-10-01T06:12:53.004Z,15.41
2022-10-01T06:15:19.499Z,15.50
2022-10-01T06:17:46.831Z,15.59
2022-10-01T06:20:14.986Z,15.53
2022-10-01T06:22:43.049Z,15.53
2022-10-01T06:25:13.398Z,15.39
2022-10-01T06:27:40.210Z,15.44
2022-10-01T06:30:07.816Z,15.57
2022-10-01T06:32:35.142Z,15.57
2022-10-01T06:35:03.072Z,15.70
2022-10-01T06:37:29.873Z,15.64
2022-10-01T06:39:56.441Z,15.74
2022-10-01T06:42:22.904Z,15.77
2022-10-01T06:44:49.360Z,15.97
2022-10-01T06:47:15.860Z,15.98
2022-10-01T06:49:46.747Z,16.05
2022-10-01T06:52:32.921Z,16.18
2022-10-01T06:55:01.428Z,16.31
2022-10-01T06:57:28.221Z,16.26
2022-10-01T06:59:54.814Z,16.45
2022-10-01T07:02:30.432Z,16.64
2022-10-01T07:05:00.020Z,16.96
2022-10-01T07:07:35.355Z,17.32
2022-10-01T07:10:02.435Z,17.74
2022-10-01T07:12:29.161Z,18.31
2022-10-01T07:14:55.712Z,18.77
2022-10-01T07:17:22.732Z,18.48
2022-10-01T07:19:49.247Z,18.71
2022-10-01T07:22:15.767Z,18.90
2022-10-01T07:24:42.242Z,19.07
2022-10-01T07:27:08.802Z,19.35
2022-10-01T07:29:35.333Z,19.22
2022-10-01T07:32:02.228Z,19.13
2022-10-01T07:34:30.959Z,19.25
2022-10-01T07:36:57.427Z,19.30
2022-10-01T07:39:24.071Z,19.66
2022-10-01T07:41:51.502Z,19.69
2022-10-01T07:44:19.018Z,19.69
2022-10-01T07:46:46.323Z,19.69
2022-10-01T07:49:13.378Z,19.78
2022-10-01T07:51:39.975Z,19.92
2022-10-01T07:54:06.514Z,19.95
2022-10-01T07:56:32.935Z,19.93
2022-10-01T07:58:59.574Z,20.00
2022-10-01T08:01:26.124Z,20.05
2022-10-01T08:03:53.334Z,19.93
2022-10-01T08:06:25.365Z,19.76
2022-10-01T08:08:52.888Z,19.67
2022-10-01T08:11:19.435Z,19.59
2022-10-01T08:13:45.851Z,19.30
2022-10-01T08:16:13.375Z,19.48
2022-10-01T08:18:40.672Z,19.44
2022-10-01T08:21:07.519Z,19.84
2022-10-01T08:23:34.523Z,19.41
2022-10-01T08:26:08.267Z,19.47
2022-10-01T08:28:35.497Z,19.25
2022-10-01T08:31:09.964Z,19.19
2022-10-01T08:33:38.059Z,19.17
2022-10-01T08:36:09.587Z,19.44
2022-10-01T08:38:36.911Z,18.89
2022-10-01T08:41:25.818Z,18.97
2022-10-01T08:43:53.000Z,18.96
2022-10-01T08:46:22.721Z,18.94
2022-10-01T08:49:27.609Z,18.91
2022-10-01T08:52:15.476Z,18.99
2022-10-01T08:55:06.454Z,18.88
2022-10-01T08:57:41.986Z,18.94
2022-10-01T09:00:14.674Z,18.84
2022-10-01T09:02:43.598Z,19.08
2022-10-01T09:05:31.987Z,19.04
2022-10-01T09:08:16.821Z,18.90
2022-10-01T09:10:46.618Z,19.11
2022-10-01T09:13:59.736Z,18.93
2022-10-01T09:16:47.418Z,18.83
2022-10-01T09:19:29.775Z,18.82
2022-10-01T09:22:06.063Z,19.17
2022-10-01T09:24:47.571Z,19.15
2022-10-01T09:27:17.564Z,19.08
2022-10-01T09:30:02.843Z,19.44
2022-10-01T09:32:55.534Z,19.35
2022-10-01T09:35:37.270Z,19.17
2022-10-01T09:38:16.006Z,19.21
2022-10-01T09:40:48.657Z,19.29
2022-10-01T09:43:23.047Z,19.34
2022-10-01T09:45:51.504Z,19.23
2022-10-01T09:48:21.673Z,19.48
2022-10-01T09:50:59.036Z,19.42
2022-10-01T09:53:33.816Z,19.50
2022-10-01T09:56:08.308Z,19.68
2022-10-01T09:58:39.398Z,19.39
2022-10-01T10:01:17.026Z,19.51
2022-10-01T10:03:53.736Z,19.62
2022-10-01T10:06:27.214Z,19.62
2022-10-01T10:08:55.760Z,19.61
2022-10-01T10:11:26.033Z,19.67
2022-10-01T10:13:56.136Z,19.53
2022-10-01T10:16:26.316Z,19.54
2022-10-01T10:19:10.286Z,19.60
2022-10-01T10:21:37.840Z,19.48
2022-10-01T10:24:21.394Z,19.67
2022-10-01T10:26:56.740Z,19.69
2022-10-01T10:29:30.475Z,19.52
2022-10-01T10:31:57.727Z,19.97
2022-10-01T10:34:33.580Z,20.29
2022-10-01T10:37:05.667Z,20.27
2022-10-01T10:39:36.483Z,20.21
2022-10-01T10:42:05.673Z,20.36
2022-10-01T10:44:38.857Z,20.44
2022-10-01T10:47:11.303Z,20.30
2022-10-01T10:49:55.127Z,20.38
2022-10-01T10:52:29.895Z,20.52
2022-10-01T10:55:01.272Z,20.61
2022-10-01T10:57:30.444Z,20.55
2022-10-01T11:00:13.265Z,20.70
2022-10-01T11:02:42.356Z,21.19
2022-10-01T11:05:23.567Z,20.89
2022-10-01T11:07:55.445Z,20.78
2022-10-01T11:10:49.566Z,20.81
2022-10-01T11:13:39.080Z,21.13
2022-10-01T11:16:24.917Z,20.86
2022-10-01T11:19:14.311Z,21.16
2022-10-01T11:22:02.601Z,20.98
2022-10-01T11:24:38.557Z,20.95
2022-10-01T11:27:22.745Z,20.82
2022-10-01T11:30:10.203Z,20.87
2022-10-01T11:32:55.358Z,21.12
2022-10-01T11:35:33.198Z,21.15
2022-10-01T11:38:17.486Z,21.17
2022-10-01T11:40:50.366Z,21.38
2022-10-01T11:43:20.725Z,21.34
2022-10-01T11:45:51.817Z,21.67
2022-10-01T11:48:37.949Z,21.46
2022-10-01T11:51:15.599Z,21.54
2022-10-01T11:53:56.290Z,21.23
2022-10-01T11:56:51.975Z,21.22
2022-10-01T11:59:19.284Z,21.34
2022-10-01T12:02:15.437Z,21.37
2022-10-01T12:04:45.948Z,21.07
2022-10-01T12:07:20.610Z,21.14
2022-10-01T12:09:55.800Z,21.12
2022-10-01T12:12:31.794Z,21.03
2022-10-01T12:15:06.705Z,21.02
2022-10-01T12:17:54.175Z,21.05
2022-10-01T12:20:29.948Z,21.19
2022-10-01T12:22:59.123Z,21.28
2022-10-01T12:25:42.283Z,21.05
2022-10-01T12:28:15.013Z,21.12
2022-10-01T12:30:54.677Z,21.02
2022-10-01T12:33:27.744Z,21.18
2022-10-01T12:36:17.129Z,21.04
2022-10-01T12:39:37.574Z,21.10
2022-10-01T12:42:48.298Z,21.22
2022-10-01T12:45:37.725Z,21.08
2022-10-01T12:48:18.153Z,21.14
2022-10-01T12:51:08.254Z,21.14
2022-10-01T12:53:46.629Z,21.01
2022-10-01T12:56:21.621Z,21.12
2022-10-01T12:59:16.111Z,21.20
2022-10-01T13:02:20.914Z,21.16
2022-10-01T13:05:20.023Z,21.23
2022-10-01T13:08:01.740Z,21.07
2022-10-01T13:11:00.045Z,21.08
2022-10-01T13:13:32.965Z,20.87
2022-10-01T13:16:05.481Z,21.00
2022-10-01T13:18:39.694Z,21.19
2022-10-01T13:21:21.004Z,21.26
2022-10-01T13:23:50.597Z,21.15
2022-10-01T13:26:26.479Z,21.13
2022-10-01T13:29:09.520Z,21.13
2022-10-01T13:31:55.142Z,21.29
2022-10-01T13:34:34.702Z,21.26
2022-10-01T13:37:29.598Z,21.35
2022-10-01T13:39:57.983Z,21.30
2022-10-01T13:42:30.989Z,21.16
2022-10-01T13:45:06.807Z,21.36
2022-10-01T13:47:41.200Z,21.44
2022-10-01T13:50:18.645Z,21.26
2022-10-01T13:52:45.344Z,21.45
2022-10-01T13:55:30.258Z,21.32
2022-10-01T13:58:20.559Z,21.22
2022-10-01T14:00:56.291Z,21.12
2022-10-01T14:03:59.546Z,21.56
2022-10-01T14:06:31.243Z,21.77
2022-10-01T14:09:05.335Z,21.71
2022-10-01T14:11:54.048Z,21.64
2022-10-01T14:14:46.054Z,21.63
2022-10-01T14:17:13.050Z,21.54
2022-10-01T14:19:47.036Z,21.40
2022-10-01T14:22:19.598Z,21.44
2022-10-01T14:24:48.800Z,21.33
2022-10-01T14:27:33.061Z,21.53
2022-10-01T14:30:23.504Z,21.46
2022-10-01T14:33:23.015Z,21.48
2022-10-01T14:36:14.021Z,21.33
2022-10-01T14:38:40.529Z,21.40
2022-10-01T14:41:17.090Z,21.22
2022-10-01T14:43:43.578Z,21.30
2022-10-01T14:46:16.594Z,21.18
2022-10-01T14:48:44.130Z,21.06
2022-10-01T14:51:49.014Z,21.13
2022-10-01T14:54:15.666Z,21.29
2022-10-01T14:56:42.474Z,21.20
2022-10-01T14:59:35.281Z,21.16
2022-10-01T15:02:11.150Z,21.08
2022-10-01T15:04:37.684Z,21.13
2022-10-01T15:07:13.306Z,21.26
2022-10-01T15:09:39.833Z,21.26
2022-10-01T15:12:06.540Z,21.31
2022-10-01T15:14:33.086Z,21.42
2022-10-01T15:17:04.773Z,21.34
2022-10-01T15:19:32.366Z,21.24
2022-10-01T15:22:01.567Z,21.46
2022-10-01T15:24:40.387Z,21.36
2022-10-01T15:27:09.122Z,21.23
2022-10-01T15:29:38.395Z,21.16
2022-10-01T15:32:05.817Z,21.16
2022-10-01T15:34:33.122Z,20.98
2022-10-01T15:37:00.952Z,20.84
2022-10-01T15:39:32.475Z,20.82
2022-10-01T15:42:02.740Z,20.74
2022-10-01T15:44:47.044Z,20.65
2022-10-01T15:47:19.563Z,20.60
2022-10-01T15:50:12.477Z,20.52
2022-10-01T15:52:51.601Z,20.56
2022-10-01T15:55:26.274Z,20.58
2022-10-01T15:57:57.814Z,20.53
2022-10-01T16:00:27.912Z,20.53
2022-10-01T16:02:56.710Z,20.77
2022-10-01T16:05:26.770Z,20.70
2022-10-01T16:07:58.426Z,20.56
2022-10-01T16:10:37.966Z,20.46
2022-10-01T16:13:44.843Z,20.44
2022-10-01T16:16:14.063Z,20.35
2022-10-01T16:18:41.591Z,20.41
2022-10-01T16:21:10.221Z,20.45
2022-10-01T16:23:39.799Z,20.38
2022-10-01T16:26:29.562Z,20.44
2022-10-01T16:28:57.297Z,20.35
2022-10-01T16:31:25.662Z,20.30
2022-10-01T16:33:52.711Z,20.24
2022-10-01T16:36:20.731Z,20.14
2022-10-01T16:38:48.165Z,20.10
2022-10-01T16:41:24.587Z,20.07
2022-10-01T16:43:52.971Z,20.03
2022-10-01T16:46:19.569Z,20.01
2022-10-01T16:48:49.569Z,19.95
2022-10-01T16:51:16.145Z,19.89
2022-10-01T16:53:45.890Z,19.80
2022-10-01T16:56:13.646Z,20.00
2022-10-01T16:58:41.715Z,20.09
2022-10-01T17:01:09.821Z,20.13
2022-10-01T17:03:36.611Z,20.24
2022-10-01T17:06:06.739Z,20.18
2022-10-01T17:08:33.283Z,20.19
2022-10-01T17:11:02.637Z,20.13
2022-10-01T17:13:32.674Z,20.06
2022-10-01T17:15:59.981Z,20.04
2022-10-01T17:18:26.478Z,19.89
2022-10-01T17:20:52.967Z,20.08
2022-10-01T17:23:21.027Z,20.20
2022-10-01T17:25:47.689Z,20.17
2022-10-01T17:28:20.022Z,20.02
2022-10-01T17:30:48.927Z,20.02
2022-10-01T17:33:19.157Z,20.12
2022-10-01T17:35:51.631Z,19.92
2022-10-01T17:38:19.109Z,20.03
2022-10-01T17:40:45.555Z,19.77
2022-10-01T17:43:13.989Z,19.72
2022-10-01T17:45:40.843Z,19.82
2022-10-01T17:48:07.796Z,19.86
2022-10-01T17:50:34.427Z,19.83
2022-10-01T17:53:01.395Z,19.92
2022-10-01T17:55:28.145Z,19.63
2022-10-01T17:57:54.608Z,19.63
2022-10-01T18:00:21.244Z,19.57
2022-10-01T18:02:47.883Z,19.89
2022-10-01T18:05:15.087Z,19.77
2022-10-01T18:07:42.234Z,19.64
2022-10-01T18:10:11.784Z,19.59
2022-10-01T18:12:38.443Z,19.66
2022-10-01T18:15:05.389Z,19.63
2022-10-01T18:17:32.705Z,19.64
2022-10-01T18:19:59.480Z,19.51
2022-10-01T18:22:27.490Z,19.51
2022-10-01T18:24:54.736Z,19.45
2022-10-01T18:27:21.521Z,19.36
2022-10-01T18:29:48.061Z,19.52
2022-10-01T18:32:21.111Z,19.44
2022-10-01T18:35:05.838Z,19.82
2022-10-01T18:37:46.481Z,19.53
2022-10-01T18:40:17.488Z,19.54
2022-10-01T18:43:06.333Z,19.53
2022-10-01T18:46:10.093Z,19.41
2022-10-01T18:49:02.833Z,19.65
2022-10-01T18:51:52.063Z,19.61
2022-10-01T18:54:21.531Z,19.71
2022-10-01T18:57:09.735Z,19.41
2022-10-01T18:59:51.247Z,19.54
2022-10-01T19:02:55.352Z,19.49
2022-10-01T19:05:53.476Z,19.33
2022-10-01T19:08:24.462Z,19.17
2022-10-01T19:11:03.792Z,19.22
2022-10-01T19:13:42.687Z,19.34
2022-10-01T19:16:12.199Z,19.46
2022-10-01T19:19:07.873Z,19.32
2022-10-01T19:21:49.280Z,19.06
2022-10-01T19:24:19.071Z,19.12
2022-10-01T19:27:20.746Z,19.41
2022-10-01T19:29:55.118Z,19.33
2022-10-01T19:32:25.926Z,19.08
2022-10-01T19:35:00.579Z,19.06
2022-10-01T19:37:48.321Z,19.17
2022-10-01T19:40:19.377Z,18.99
2022-10-01T19:42:51.831Z,19.12
2022-10-01T19:45:20.900Z,19.26
2022-10-01T19:47:59.093Z,19.39
2022-10-01T19:50:29.907Z,19.32
2022-10-01T19:52:59.339Z,19.23
2022-10-01T19:55:32.152Z,18.90
2022-10-01T19:58:02.337Z,19.00
2022-10-01T20:00:30.827Z,19.25
2022-10-01T20:03:04.000Z,19.17
2022-10-01T20:06:05.954Z,18.90
2022-10-01T20:08:52.673Z,18.82
2022-10-01T20:11:28.087Z,18.91
2022-10-01T20:14:38.896Z,18.77
2022-10-01T20:17:22.741Z,18.57
2022-10-01T20:20:15.591Z,18.74
2022-10-01T20:23:06.861Z,18.64
2022-10-01T20:26:07.706Z,18.85
2022-10-01T20:28:42.988Z,18.74
2022-10-01T20:31:20.070Z,18.71
2022-10-01T20:33:56.394Z,18.45
2022-10-01T20:36:34.898Z,18.45
2022-10-01T20:39:17.373Z,18.48
2022-10-01T20:41:48.075Z,18.45
2022-10-01T20:44:21.921Z,18.32
2022-10-01T20:46:52.229Z,18.16
2022-10-01T20:49:28.009Z,18.28
2022-10-01T20:52:34.398Z,18.36
2022-10-01T20:55:06.702Z,18.47
2022-10-01T20:57:47.039Z,18.60
2022-10-01T21:00:20.015Z,18.38
2022-10-01T21:03:23.943Z,18.31
2022-10-01T21:06:10.915Z,18.23
2022-10-01T21:08:43.178Z,18.30
2022-10-01T21:11:16.494Z,18.21
2022-10-01T21:13:49.909Z,18.38
2022-10-01T21:16:42.771Z,18.43
2022-10-01T21:19:30.165Z,18.29
2022-10-01T21:22:01.571Z,18.18
2022-10-01T21:24:44.490Z,18.01
2022-10-01T21:27:29.666Z,18.04
2022-10-01T21:30:11.051Z,18.39
2022-10-01T21:33:06.135Z,18.32
2022-10-01T21:35:54.961Z,18.12
2022-10-01T21:38:43.437Z,18.10
2022-10-01T21:41:18.707Z,18.15
2022-10-01T21:43:56.574Z,17.98
2022-10-01T21:46:55.234Z,18.05
2022-10-01T21:49:30.498Z,18.23
2022-10-01T21:52:15.393Z,18.46
2022-10-01T21:55:00.344Z,18.23
2022-10-01T21:57:51.740Z,18.21
2022-10-01T22:00:23.429Z,18.20
2022-10-01T22:03:14.435Z,18.19
2022-10-01T22:05:54.548Z,18.26
2022-10-01T22:08:37.923Z,18.63
2022-10-01T22:11:15.961Z,18.72
2022-10-01T22:13:51.407Z,18.72
2022-10-01T22:16:19.914Z,18.74
2022-10-01T22:18:50.853Z,18.77
2022-10-01T22:21:27.198Z,18.81
2022-10-01T22:24:03.830Z,18.75
2022-10-01T22:26:34.141Z,18.62
2022-10-01T22:29:03.042Z,18.84
2022-10-01T22:31:34.303Z,19.05
2022-10-01T22:34:14.820Z,19.04
2022-10-01T22:36:50.334Z,18.91
2022-10-01T22:39:24.411Z,18.82
2022-10-01T22:42:01.377Z,18.90
2022-10-01T22:44:29.552Z,18.84
2022-10-01T22:46:58.742Z,18.95
2022-10-01T22:49:38.029Z,18.78
2022-10-01T22:52:32.395Z,19.04
2022-10-01T22:55:01.892Z,18.84
2022-10-01T22:58:05.492Z,18.81
2022-10-01T23:00:39.306Z,18.83
2022-10-01T23:03:32.182Z,18.76
2022-10-01T23:06:11.962Z,18.83
2022-10-01T23:08:43.293Z,18.85
2022-10-01T23:11:28.910Z,18.76
2022-10-01T23:14:01.281Z,18.68
2022-10-01T23:16:30.605Z,18.66
2022-10-01T23:19:25.455Z,18.65
2022-10-01T23:22:02.216Z,18.95
2022-10-01T23:25:25.773Z,18.68
2022-10-01T23:28:08.326Z,18.74
2022-10-01T23:30:48.154Z,18.60
2022-10-01T23:33:26.863Z,18.59
2022-10-01T23:36:23.104Z,18.46
2022-10-01T23:39:17.292Z,18.41
2022-10-01T23:41:50.902Z,18.45
2022-10-01T23:44:39.817Z,18.30
2022-10-01T23:47:20.679Z,18.36
2022-10-01T23:49:55.230Z,18.61
2022-10-01T23:52:31.709Z,18.40
2022-10-01T23:55:23.721Z,18.32
2022-10-01T23:58:02.381Z,18.11
